createdAt,value
2018-07-12T00:00:18.052Z,100264.00
2018-07-12T00:05:19.471Z,100252.00
2018-07-12T00:10:20.883Z,100240.00
2018-07-12T00:15:22.304Z,100244.00
2018-07-12T00:20:23.748Z,100236.00
2018-07-12T00:25:25.184Z,100243.00
2018-07-12T00:30:26.623Z,100239.00
2018-07-12T00:35:28.111Z,100229.00
2018-07-12T00:40:29.519Z,100238.00
2018-07-12T00:45:31.147Z,100231.00
2018-07-12T00:50:32.827Z,100229.00
2018-07-12T00:55:34.242Z,100228.00
2018-07-12T01:00:35.656Z,100225.00
2018-07-12T01:05:37.148Z,100225.00
2018-07-12T01:10:38.579Z,100216.00
2018-07-12T01:15:40.355Z,100224.00
2018-07-12T01:20:41.776Z,100231.00
2018-07-12T01:25:43.217Z,100232.00
2018-07-12T01:30:44.642Z,100248.00
2018-07-12T01:35:46.103Z,100242.00
2018-07-12T01:40:47.537Z,100246.00
2018-07-12T01:45:49.170Z,100242.00
2018-07-12T01:50:50.591Z,100245.00
2018-07-12T01:55:52.031Z,100240.00
2018-07-12T02:00:53.603Z,100243.00
2018-07-12T02:05:55.483Z,100250.00
2018-07-12T02:10:57.125Z,100251.00
2018-07-12T02:15:58.800Z,100254.00
2018-07-12T02:21:00.271Z,100257.00
2018-07-12T02:26:01.703Z,100255.00
2018-07-12T02:31:03.124Z,100251.00
2018-07-12T02:36:04.552Z,100245.00
2018-07-12T02:41:06.182Z,100256.00
2018-07-12T02:46:07.608Z,100251.00
2018-07-12T02:51:09.064Z,100256.00
2018-07-12T02:56:10.503Z,100246.00
2018-07-12T03:01:12.104Z,100248.00
2018-07-12T03:06:13.679Z,100243.00
2018-07-12T03:11:15.367Z,100244.00
2018-07-12T03:16:16.789Z,100244.00
2018-07-12T03:21:18.402Z,100252.00
2018-07-12T03:26:20.303Z,100257.00
2018-07-12T03:31:21.932Z,100265.00
2018-07-12T03:36:23.352Z,100262.00
2018-07-12T03:41:24.760Z,100273.00
2018-07-12T03:46:26.181Z,100267.00
2018-07-12T03:51:28.049Z,100271.00
2018-07-12T03:56:29.463Z,100286.00
2018-07-12T04:01:30.883Z,100284.00
2018-07-12T04:06:32.893Z,100279.00
2018-07-12T04:11:34.604Z,100288.00
2018-07-12T04:16:36.037Z,100289.00
2018-07-12T04:21:37.452Z,100290.00
2018-07-12T04:26:39.116Z,100296.00
2018-07-12T04:31:40.679Z,100301.00
2018-07-12T04:36:42.251Z,100292.00
2018-07-12T04:41:43.676Z,100294.00
2018-07-12T04:46:45.252Z,100294.00
2018-07-12T04:51:46.867Z,100292.00
2018-07-12T04:56:48.635Z,100292.00
2018-07-12T05:01:50.307Z,100297.00
2018-07-12T05:06:51.860Z,100304.00
2018-07-12T05:11:53.564Z,100304.00
2018-07-12T05:16:55.223Z,100296.00
2018-07-12T05:21:56.673Z,100307.00
2018-07-12T05:26:58.263Z,100307.00
2018-07-12T05:31:59.936Z,100309.00
2018-07-12T05:37:03.181Z,100323.00
2018-07-12T05:42:06.348Z,100320.00
2018-07-12T05:47:09.369Z,100320.00
2018-07-12T05:52:12.568Z,100326.00
2018-07-12T05:57:15.608Z,100323.00
2018-07-12T06:02:21.972Z,100337.00
2018-07-12T06:07:29.444Z,100335.00
2018-07-12T06:12:32.440Z,100341.00
2018-07-12T06:17:35.408Z,100345.00
2018-07-12T06:22:38.689Z,100359.00
2018-07-12T06:27:41.685Z,100358.00
2018-07-12T06:32:44.981Z,100354.00
2018-07-12T06:37:48.196Z,100360.00
2018-07-12T06:42:51.192Z,100350.00
2018-07-12T06:47:54.219Z,100356.00
2018-07-12T06:52:57.300Z,100362.00
2018-07-12T06:58:00.696Z,100376.00
2018-07-12T07:03:03.900Z,100389.00
2018-07-12T07:08:06.881Z,100383.00
2018-07-12T07:13:09.888Z,100369.00
2018-07-12T07:18:12.951Z,100380.00
2018-07-12T07:23:16.220Z,100387.00
2018-07-12T07:28:19.213Z,100380.00
2018-07-12T07:33:22.317Z,100382.00
2018-07-12T07:38:25.340Z,100384.00
2018-07-12T07:43:28.307Z,100392.00
2018-07-12T07:48:31.507Z,100393.00
2018-07-12T07:53:34.532Z,100395.00
2018-07-12T07:58:37.515Z,100394.00
2018-07-12T08:03:40.507Z,100392.00
2018-07-12T08:08:43.504Z,100398.00
2018-07-12T08:13:46.475Z,100397.00
2018-07-12T08:18:49.432Z,100405.00
2018-07-12T08:23:52.456Z,100401.00
2018-07-12T08:28:55.461Z,100414.00
2018-07-12T08:33:58.627Z,100410.00
2018-07-12T08:39:01.632Z,100409.00
2018-07-12T08:44:04.795Z,100407.00
2018-07-12T08:49:07.789Z,100407.00
2018-07-12T08:54:10.831Z,100413.00
2018-07-12T08:59:13.967Z,100431.00
2018-07-12T09:04:17.167Z,100418.00
2018-07-12T09:09:20.181Z,100412.00
2018-07-12T09:14:23.175Z,100406.00
2018-07-12T09:19:26.379Z,100408.00
2018-07-12T09:24:29.358Z,100408.00
2018-07-12T09:29:32.352Z,100402.00
2018-07-12T09:34:35.531Z,100415.00
2018-07-12T09:39:38.530Z,100416.00
2018-07-12T09:44:41.544Z,100414.00
2018-07-12T09:49:44.713Z,100409.00
2018-07-12T09:54:47.994Z,100404.00
2018-07-12T09:59:50.946Z,100406.00
2018-07-12T10:04:54.249Z,100411.00
2018-07-12T10:09:57.612Z,100408.00
2018-07-12T10:15:06.411Z,100404.00
2018-07-12T10:20:09.445Z,100406.00
2018-07-12T10:25:12.496Z,100403.00
2018-07-12T10:30:15.520Z,100417.00
2018-07-12T10:35:18.523Z,100417.00
2018-07-12T10:40:21.715Z,100413.00
2018-07-12T10:45:25.136Z,100419.00
2018-07-12T10:50:28.332Z,100423.00
2018-07-12T10:55:31.554Z,100419.00
2018-07-12T11:00:34.680Z,100421.00
2018-07-12T11:05:37.725Z,100422.00
2018-07-12T11:10:41.671Z,100415.00
2018-07-12T11:15:45.700Z,100406.00
2018-07-12T11:20:48.991Z,100413.00
2018-07-12T11:25:52.240Z,100407.00
2018-07-12T11:30:55.268Z,100416.00
2018-07-12T11:35:58.231Z,100420.00
2018-07-12T11:41:02.175Z,100417.00
2018-07-12T11:46:06.763Z,100412.00
2018-07-12T11:51:09.803Z,100407.00
2018-07-12T11:56:12.940Z,100404.00
2018-07-12T12:01:16.065Z,100400.00
2018-07-12T12:06:19.174Z,100402.00
2018-07-12T12:11:22.212Z,100401.00
2018-07-12T12:16:25.216Z,100410.00
2018-07-12T12:21:28.252Z,100403.00
2018-07-12T12:26:31.271Z,100398.00
2018-07-12T12:31:34.313Z,100408.00
2018-07-12T12:36:37.331Z,100404.00
2018-07-12T12:41:40.341Z,100408.00
2018-07-12T12:46:43.389Z,100405.00
2018-07-12T12:51:46.571Z,100408.00
2018-07-12T12:56:49.540Z,100398.00
2018-07-12T13:01:52.706Z,100405.00
2018-07-12T13:06:55.892Z,100405.00
2018-07-12T13:11:59.147Z,100407.00
2018-07-12T13:17:02.323Z,100408.00
2018-07-12T13:22:05.622Z,100398.00
2018-07-12T13:27:08.688Z,100397.00
2018-07-12T13:32:11.772Z,100398.00
2018-07-12T13:37:14.917Z,100400.00
2018-07-12T13:42:18.263Z,100398.00
2018-07-12T13:47:21.257Z,100389.00
2018-07-12T13:52:24.268Z,100395.00
2018-07-12T13:57:27.584Z,100386.00
2018-07-12T14:02:30.809Z,100382.00
2018-07-12T14:07:34.061Z,100376.00
2018-07-12T14:12:37.299Z,100384.00
2018-07-12T14:17:40.325Z,100382.00
2018-07-12T14:22:43.353Z,100384.00
2018-07-12T14:27:46.512Z,100378.00
2018-07-12T14:32:49.711Z,100365.00
2018-07-12T14:37:52.711Z,100363.00
2018-07-12T14:42:55.938Z,100370.00
2018-07-12T14:47:59.077Z,100358.00
2018-07-12T14:53:02.273Z,100358.00
2018-07-12T14:58:05.424Z,100362.00
2018-07-12T15:03:08.705Z,100358.00
2018-07-12T15:08:12.014Z,100356.00
2018-07-12T15:13:14.963Z,100361.00
2018-07-12T15:18:17.935Z,100350.00
2018-07-12T15:23:20.948Z,100354.00
2018-07-12T15:28:23.954Z,100346.00
2018-07-12T15:33:26.980Z,100336.00
2018-07-12T15:38:29.992Z,100337.00
2018-07-12T15:43:33.110Z,100338.00
2018-07-12T15:48:36.212Z,100326.00
2018-07-12T15:53:39.219Z,100332.00
2018-07-12T15:58:42.248Z,100331.00
2018-07-12T16:03:45.184Z,100340.00
2018-07-12T16:08:48.152Z,100334.00
2018-07-12T16:13:51.131Z,100335.00
2018-07-12T16:18:54.384Z,100337.00
2018-07-12T16:23:57.442Z,100333.00
2018-07-12T16:29:00.391Z,100333.00
2018-07-12T16:34:03.486Z,100332.00
2018-07-12T16:39:07.404Z,100336.00
2018-07-12T16:44:10.404Z,100339.00
2018-07-12T16:49:13.599Z,100347.00
2018-07-12T16:54:16.643Z,100333.00
2018-07-12T16:59:19.823Z,100333.00
2018-07-12T17:04:23.432Z,100330.00
2018-07-12T17:09:26.464Z,100325.00
2018-07-12T17:14:29.512Z,100333.00
2018-07-12T17:19:32.529Z,100330.00
2018-07-12T17:24:35.528Z,100331.00
2018-07-12T17:29:38.647Z,100335.00
2018-07-12T17:34:41.904Z,100336.00
2018-07-12T17:39:44.892Z,100335.00
2018-07-12T17:44:47.986Z,100333.00
2018-07-12T17:49:50.959Z,100323.00
2018-07-12T17:54:53.975Z,100331.00
2018-07-12T17:59:57.196Z,100331.00
2018-07-12T18:05:00.419Z,100334.00
2018-07-12T18:10:03.531Z,100337.00
2018-07-12T18:15:06.762Z,100340.00
2018-07-12T18:20:10.129Z,100337.00
2018-07-12T18:25:13.357Z,100342.00
2018-07-12T18:30:16.656Z,100334.00
2018-07-12T18:35:19.746Z,100338.00
2018-07-12T18:40:22.692Z,100340.00
2018-07-12T18:45:25.735Z,100341.00
2018-07-12T18:50:28.792Z,100352.00
2018-07-12T18:55:32.089Z,100355.00
2018-07-12T19:00:35.115Z,100359.00
2018-07-12T19:05:38.111Z,100357.00
2018-07-12T19:10:41.418Z,100364.00
2018-07-12T19:15:44.395Z,100368.00
2018-07-12T19:20:47.514Z,100372.00
2018-07-12T19:25:50.580Z,100379.00
2018-07-12T19:30:53.834Z,100382.00
2018-07-12T19:35:56.953Z,100389.00
2018-07-12T19:41:00.379Z,100400.00
2018-07-12T19:46:03.456Z,100418.00
2018-07-12T19:51:06.636Z,100421.00
2018-07-12T19:56:09.867Z,100423.00
2018-07-12T20:01:12.927Z,100428.00
2018-07-12T20:06:15.968Z,100434.00
2018-07-12T20:11:18.996Z,100440.00
2018-07-12T20:16:22.284Z,100450.00
2018-07-12T20:21:25.485Z,100454.00
2018-07-12T20:26:28.532Z,100460.00
2018-07-12T20:31:31.667Z,100461.00
2018-07-12T20:36:34.891Z,100473.00
2018-07-12T20:41:38.009Z,100475.00
2018-07-12T20:46:41.304Z,100478.00
2018-07-12T20:51:44.343Z,100490.00
2018-07-12T20:56:47.460Z,100500.00
2018-07-12T21:01:50.663Z,100491.00
2018-07-12T21:06:53.668Z,100498.00
2018-07-12T21:11:56.869Z,100504.00
2018-07-12T21:16:59.979Z,100497.00
2018-07-12T21:22:03.183Z,100503.00
2018-07-12T21:27:06.199Z,100509.00
2018-07-12T21:32:09.364Z,100506.00
2018-07-12T21:37:12.481Z,100501.00
2018-07-12T21:42:15.505Z,100510.00
2018-07-12T21:47:18.720Z,100511.00
2018-07-12T21:52:21.884Z,100524.00
2018-07-12T21:57:25.145Z,100525.00
2018-07-12T22:02:28.251Z,100527.00
2018-07-12T22:07:50.983Z,100521.00
2018-07-12T22:12:53.956Z,100520.00
2018-07-12T22:17:57.421Z,100512.00
2018-07-12T22:23:00.897Z,100513.00
2018-07-12T22:28:03.954Z,100524.00
2018-07-12T22:33:07.092Z,100527.00
2018-07-12T22:38:10.103Z,100523.00
2018-07-12T22:43:13.138Z,100519.00
2018-07-12T22:48:16.256Z,100517.00
2018-07-12T22:53:19.479Z,100522.00
2018-07-12T22:58:22.491Z,100528.00
2018-07-12T23:03:25.681Z,100517.00
2018-07-12T23:08:28.727Z,100502.00
2018-07-12T23:13:31.995Z,100506.00
2018-07-12T23:18:35.217Z,100505.00
2018-07-12T23:23:38.191Z,100501.00
2018-07-12T23:28:41.200Z,100504.00
2018-07-12T23:33:44.428Z,100491.00
2018-07-12T23:38:47.380Z,100482.00
2018-07-12T23:43:50.943Z,100491.00
2018-07-12T23:48:53.937Z,100492.00
2018-07-12T23:53:56.933Z,100491.00
2018-07-12T23:58:59.945Z,100487.00
